Ohio City, Ohio
Current Conditions -  °F | °C
As of 3:33 AM on Saturday 29 Nov 2014 (Local Time) from KAXV Reporting Station
Clear Clear  
Wind Chill: 24°   Ceiling: Unl
Heat Index: 32°   Visibility: 10mi
Dew Point: 21°   Wind: 10mph
Humidity: 64%   Direction: 170°S
Pressure: 30.01"   Gusts: NA
Location:  40.77°N, 84.62°W
Report Text: KAXV 290833Z AUTO 17009KT 10SM CLR 00/M06 A3001 RMK AO2
Loading
Personal Weather Stations






























Interactive Weather Map New forecast layout! Learn more

10-Day Weather Forecast

Advertisements
Track Severe Weather on mobile